Time;durP1;ratioP1;P1;durP2;ratioP2;P2;SDS_P1;SDS_P2;PMS_P1;PMS_P2;Temp;Humidity;BMP_temperature;BMP_pressure;BME280_temperature;BME280_humidity;BME280_pressure;Samples;Min_cycle;Max_cycle;Signal;HPM_P1;HPM_P2
2021/12/30 00:00:59;;;;;;;23.90;14.67;;;12.60;99.90;;;;;;2614460;54;20431;-78
2021/12/30 00:03:25;;;;;;;32.23;12.13;;;12.50;99.90;;;;;;2613686;54;20947;-78
2021/12/30 00:05:52;;;;;;;23.97;13.17;;;12.50;99.90;;;;;;2612302;47;20436;-78
2021/12/30 00:08:19;;;;;;;27.63;14.73;;;12.50;99.90;;;;;;2613043;47;20459;-78
2021/12/30 00:10:45;;;;;;;27.40;11.83;;;12.60;99.90;;;;;;2612240;54;20407;-78
2021/12/30 00:13:11;;;;;;;32.37;14.93;;;12.50;99.90;;;;;;2613187;47;20422;-78
2021/12/30 00:15:38;;;;;;;23.87;13.57;;;12.50;99.90;;;;;;2615408;39;20890;-78
2021/12/30 00:18:07;;;;;;;26.67;12.57;;;12.60;99.90;;;;;;2612313;47;20510;-78
2021/12/30 00:20:33;;;;;;;25.63;12.33;;;12.50;99.90;;;;;;2613135;54;20402;-78
2021/12/30 00:23:02;;;;;;;26.70;11.17;;;12.50;99.90;;;;;;2614356;31;20852;-78
2021/12/30 00:25:37;;;;;;;20.20;11.70;;;12.50;99.90;;;;;;2612194;54;21076;-78
2021/12/30 00:28:04;;;;;;;25.10;11.00;;;12.40;99.90;;;;;;2614337;54;20428;-78
2021/12/30 00:30:30;;;;;;;30.03;9.00;;;12.40;99.90;;;;;;2611637;54;20983;-77
2021/12/30 00:32:56;;;;;;;23.83;10.00;;;12.40;99.90;;;;;;2613956;54;21001;-78
2021/12/30 00:35:22;;;;;;;21.40;10.17;;;12.40;99.90;;;;;;2612321;54;20419;-78
2021/12/30 00:37:48;;;;;;;19.00;9.13;;;12.40;99.90;;;;;;2613163;54;20394;-78
2021/12/30 00:40:14;;;;;;;27.97;9.47;;;12.40;99.90;;;;;;2612596;54;20226;-78
2021/12/30 00:42:40;;;;;;;27.97;8.47;;;12.40;99.90;;;;;;2611849;54;20415;-78
2021/12/30 00:45:06;;;;;;;20.00;8.70;;;12.50;99.90;;;;;;2614318;54;20883;-77
2021/12/30 00:47:32;;;;;;;11.13;5.93;;;12.40;99.90;;;;;;2611641;47;20518;-77
2021/12/30 00:49:58;;;;;;;17.90;8.57;;;12.50;99.90;;;;;;2614867;54;20415;-78
2021/12/30 00:52:25;;;;;;;19.77;7.47;;;12.50;99.90;;;;;;2614259;54;20507;-77
2021/12/30 00:54:51;;;;;;;17.30;7.27;;;12.50;99.90;;;;;;2612880;54;20832;-78
2021/12/30 00:57:16;;;;;;;18.57;10.73;;;12.50;99.90;;;;;;2609717;54;20428;-78
2021/12/30 00:59:42;;;;;;;17.73;8.97;;;12.50;99.90;;;;;;2613523;54;20527;-78
2021/12/30 01:02:09;;;;;;;17.43;7.67;;;12.50;99.90;;;;;;2612972;54;20155;-79
2021/12/30 01:04:35;;;;;;;25.50;10.53;;;12.50;99.90;;;;;;2611614;54;20161;-78
2021/12/30 01:07:02;;;;;;;22.47;11.33;;;12.50;99.90;;;;;;2612430;54;20526;-78
2021/12/30 01:09:28;;;;;;;22.60;10.63;;;12.50;99.90;;;;;;2611963;54;21153;-78
2021/12/30 01:11:55;;;;;;;32.07;11.00;;;12.50;99.90;;;;;;2611165;47;20404;-78
2021/12/30 01:14:24;;;;;;;24.13;10.57;;;12.50;99.90;;;;;;2613178;47;20423;-77
2021/12/30 01:16:54;;;;;;;16.00;9.83;;;12.50;99.90;;;;;;2613821;54;21035;-77
2021/12/30 01:19:42;;;;;;;23.73;7.80;;;12.50;99.90;;;;;;2613804;54;21119;-79
2021/12/30 01:22:26;;;;;;;14.97;7.60;;;12.40;99.90;;;;;;2613678;54;20859;-78
2021/12/30 01:24:52;;;;;;;14.07;7.87;;;12.40;99.90;;;;;;2614011;47;20476;-77
2021/12/30 01:27:19;;;;;;;12.20;6.47;;;12.50;99.90;;;;;;2613685;39;20829;-78
2021/12/30 01:29:48;;;;;;;20.23;7.67;;;12.50;99.90;;;;;;2613866;47;20441;-78
2021/12/30 01:32:14;;;;;;;20.10;8.37;;;12.40;99.90;;;;;;2613224;54;20414;-77
2021/12/30 01:34:40;;;;;;;21.70;8.87;;;12.50;99.90;;;;;;2614195;54;20459;-80
2021/12/30 01:37:06;;;;;;;14.70;6.50;;;12.50;99.90;;;;;;2614425;39;20822;-78
2021/12/30 01:39:36;;;;;;;17.60;6.30;;;12.40;99.90;;;;;;2614464;54;20415;-78
2021/12/30 01:42:04;;;;;;;15.53;7.83;;;12.40;99.90;;;;;;2613044;54;20407;-79
2021/12/30 01:44:29;;;;;;;16.67;7.40;;;12.40;99.90;;;;;;2615125;39;20824;-79
2021/12/30 01:46:56;;;;;;;14.33;7.40;;;12.40;99.90;;;;;;2613621;54;20408;-78
2021/12/30 01:49:23;;;;;;;29.77;7.97;;;12.50;99.90;;;;;;2614932;54;20268;-77
2021/12/30 01:51:50;;;;;;;21.70;7.13;;;12.40;99.90;;;;;;2613816;54;20426;-78
2021/12/30 01:54:16;;;;;;;17.10;8.63;;;12.50;99.90;;;;;;2610839;54;20442;-78
2021/12/30 01:56:42;;;;;;;31.80;8.27;;;12.40;99.90;;;;;;2614572;31;20979;-76
2021/12/30 01:59:08;;;;;;;19.40;8.23;;;12.50;99.90;;;;;;2615469;31;20914;-79
2021/12/30 02:01:36;;;;;;;20.03;8.23;;;12.50;99.90;;;;;;2612901;47;20423;-80
2021/12/30 02:04:02;;;;;;;22.57;11.20;;;12.50;99.90;;;;;;2613827;47;20498;-81
2021/12/30 02:06:28;;;;;;;10.63;5.33;;;12.50;99.90;;;;;;2613514;54;20451;-80
2021/12/30 02:08:54;;;;;;;15.57;6.87;;;12.50;99.90;;;;;;2614231;54;20412;-80
2021/12/30 02:11:22;;;;;;;17.23;7.80;;;12.50;99.90;;;;;;2613100;54;21246;-80
2021/12/30 02:13:49;;;;;;;22.07;6.33;;;12.50;99.90;;;;;;2614423;47;20427;-80
2021/12/30 02:16:17;;;;;;;20.03;10.17;;;12.50;99.90;;;;;;2614620;54;20458;-80
2021/12/30 02:18:44;;;;;;;25.10;7.83;;;12.60;99.90;;;;;;2615744;54;20501;-79
2021/12/30 02:21:10;;;;;;;20.90;7.50;;;12.50;99.90;;;;;;2609765;54;21099;-80
2021/12/30 02:23:37;;;;;;;21.53;8.07;;;12.60;99.90;;;;;;2613856;54;20416;-80
2021/12/30 02:26:09;;;;;;;23.50;8.57;;;12.60;99.90;;;;;;2615072;54;20975;-79
2021/12/30 02:28:37;;;;;;;13.03;5.83;;;12.50;99.90;;;;;;2615379;54;20431;-80
2021/12/30 02:31:10;;;;;;;17.00;6.67;;;12.60;99.90;;;;;;2614571;54;20420;-80
2021/12/30 02:33:38;;;;;;;11.47;5.80;;;12.50;99.90;;;;;;2615253;54;20438;-80
2021/12/30 02:36:05;;;;;;;14.43;5.60;;;12.50;99.90;;;;;;2614470;54;20423;-80
2021/12/30 02:38:31;;;;;;;20.97;6.63;;;12.50;99.90;;;;;;2613940;54;20419;-80
2021/12/30 02:40:59;;;;;;;18.57;8.03;;;12.60;99.90;;;;;;2614277;54;20403;-80
2021/12/30 02:43:27;;;;;;;23.20;8.13;;;12.60;99.90;;;;;;2614671;54;20398;-79
2021/12/30 02:45:55;;;;;;;18.73;7.47;;;12.70;99.90;;;;;;2613938;47;20510;-80
2021/12/30 02:48:24;;;;;;;18.40;7.27;;;12.70;99.90;;;;;;2614206;54;20411;-80
2021/12/30 02:50:53;;;;;;;21.60;8.27;;;12.80;99.90;;;;;;2614554;54;20410;-79
2021/12/30 02:53:20;;;;;;;14.17;6.47;;;12.80;99.90;;;;;;2613428;54;20523;-81
2021/12/30 02:55:49;;;;;;;20.70;7.77;;;12.80;99.90;;;;;;2614112;54;20406;-79
2021/12/30 02:58:17;;;;;;;28.33;6.50;;;12.70;99.90;;;;;;2614058;54;20441;-80
2021/12/30 03:00:45;;;;;;;13.50;5.93;;;12.80;99.90;;;;;;2614722;54;20454;-80
2021/12/30 03:03:19;;;;;;;11.60;5.07;;;12.70;99.90;;;;;;2615609;31;21026;-80
2021/12/30 03:05:47;;;;;;;26.10;7.33;;;12.70;99.90;;;;;;2615679;54;20427;-80
2021/12/30 03:08:13;;;;;;;18.23;6.40;;;12.70;99.90;;;;;;2612583;51;20430;-81
2021/12/30 03:10:40;;;;;;;12.57;5.70;;;12.70;99.90;;;;;;2613562;54;20483;-80
2021/12/30 03:13:10;;;;;;;18.87;6.60;;;12.60;99.90;;;;;;2613643;54;20415;-80
2021/12/30 03:15:37;;;;;;;11.67;5.30;;;12.50;99.90;;;;;;2614461;54;20412;-80
2021/12/30 03:18:03;;;;;;;17.33;4.93;;;12.50;99.90;;;;;;2614816;47;20467;-80
2021/12/30 03:20:35;;;;;;;20.83;6.83;;;12.50;99.90;;;;;;2614017;47;20422;-80
2021/12/30 03:23:04;;;;;;;22.17;7.67;;;12.40;99.90;;;;;;2615186;54;20419;-79
2021/12/30 03:25:30;;;;;;;15.63;6.73;;;12.50;99.90;;;;;;2612999;54;20435;-79
2021/12/30 03:27:56;;;;;;;20.50;9.00;;;12.50;99.90;;;;;;2611282;47;20431;-79
2021/12/30 03:30:22;;;;;;;16.93;7.30;;;12.50;99.90;;;;;;2614441;54;20415;-79
2021/12/30 03:32:48;;;;;;;9.37;5.83;;;12.50;99.90;;;;;;2614614;54;20426;-79
2021/12/30 03:35:15;;;;;;;18.33;8.90;;;12.50;99.90;;;;;;2614118;39;20972;-80
2021/12/30 03:37:41;;;;;;;11.60;5.83;;;12.60;99.90;;;;;;2614558;47;20435;-81
2021/12/30 03:40:11;;;;;;;25.07;9.13;;;12.70;99.90;;;;;;2615479;39;20801;-80
2021/12/30 03:42:39;;;;;;;26.90;11.43;;;12.70;99.90;;;;;;2612820;54;20392;-81
2021/12/30 03:45:07;;;;;;;21.77;9.97;;;12.70;99.90;;;;;;2613258;54;20411;-80
2021/12/30 03:47:37;;;;;;;14.10;7.33;;;12.80;99.90;;;;;;2613378;54;20410;-80
2021/12/30 03:50:06;;;;;;;12.90;9.30;;;12.70;99.90;;;;;;2614557;31;20848;-80
2021/12/30 03:52:32;;;;;;;17.83;7.10;;;12.80;99.90;;;;;;2613757;54;20499;-80
2021/12/30 03:54:58;;;;;;;19.80;8.50;;;12.80;99.90;;;;;;2614549;39;20795;-80
2021/12/30 03:57:24;;;;;;;23.60;8.37;;;12.80;99.90;;;;;;2614329;54;20427;-81
2021/12/30 03:59:50;;;;;;;19.13;8.17;;;12.80;99.90;;;;;;2613936;54;20498;-81
2021/12/30 04:02:16;;;;;;;12.07;6.37;;;12.80;99.90;;;;;;2613678;39;20923;-80
2021/12/30 04:04:42;;;;;;;14.23;8.27;;;12.70;99.90;;;;;;2613394;54;20416;-80
2021/12/30 04:07:09;;;;;;;18.40;7.97;;;12.80;99.90;;;;;;2614015;54;20178;-80
2021/12/30 04:09:36;;;;;;;20.53;6.97;;;12.80;99.90;;;;;;2614117;39;20821;-79
2021/12/30 04:12:03;;;;;;;11.00;6.30;;;12.70;99.90;;;;;;2612735;47;20407;-79
2021/12/30 04:14:29;;;;;;;13.47;6.57;;;12.80;99.90;;;;;;2613729;39;20847;-80
2021/12/30 04:16:55;;;;;;;14.77;6.80;;;12.70;99.90;;;;;;2613783;47;20511;-79
2021/12/30 04:19:22;;;;;;;18.73;6.17;;;12.70;99.90;;;;;;2613561;54;21018;-79
2021/12/30 04:21:53;;;;;;;13.40;8.03;;;12.70;99.90;;;;;;2613481;54;20442;-80
2021/12/30 04:24:19;;;;;;;13.33;6.30;;;12.80;99.90;;;;;;2614502;54;20435;-79
2021/12/30 04:26:46;;;;;;;13.80;7.00;;;12.80;99.90;;;;;;2614616;54;20947;-79
2021/12/30 04:29:13;;;;;;;22.10;7.03;;;12.60;99.90;;;;;;2614637;54;20458;-79
2021/12/30 04:31:40;;;;;;;17.10;7.60;;;12.60;99.90;;;;;;2613537;47;20922;-79
2021/12/30 04:34:06;;;;;;;11.70;6.57;;;12.60;99.90;;;;;;2613737;54;20399;-78
2021/12/30 04:36:32;;;;;;;14.57;7.70;;;12.60;99.90;;;;;;2614337;54;21054;-79
2021/12/30 04:38:57;;;;;;;16.07;5.50;;;12.70;99.90;;;;;;2614262;54;20150;-78
2021/12/30 04:41:23;;;;;;;18.27;8.47;;;12.70;99.90;;;;;;2615101;39;20642;-79
2021/12/30 04:43:49;;;;;;;8.70;6.67;;;12.70;99.90;;;;;;2613575;47;20158;-78
2021/12/30 04:46:14;;;;;;;14.47;7.03;;;12.70;99.90;;;;;;2612694;54;20784;-79
2021/12/30 04:48:43;;;;;;;14.80;7.50;;;12.80;99.90;;;;;;2614568;54;20695;-78
2021/12/30 04:51:09;;;;;;;12.67;5.57;;;12.80;99.90;;;;;;2614227;47;20174;-78
2021/12/30 04:53:35;;;;;;;8.63;5.07;;;12.80;99.90;;;;;;2614366;54;20447;-78
2021/12/30 04:56:01;;;;;;;10.00;4.87;;;12.70;99.90;;;;;;2614388;54;20151;-78
2021/12/30 04:58:27;;;;;;;12.77;4.63;;;12.80;99.90;;;;;;2614066;54;20446;-77
2021/12/30 05:00:53;;;;;;;7.33;4.20;;;12.70;99.90;;;;;;2613026;54;20237;-78
2021/12/30 05:03:21;;;;;;;6.63;3.80;;;12.80;99.90;;;;;;2614524;31;20782;-78
2021/12/30 05:05:49;;;;;;;6.20;3.50;;;12.80;99.90;;;;;;2612885;54;20651;-78
2021/12/30 05:08:19;;;;;;;7.73;3.60;;;12.80;99.90;;;;;;2614554;54;20414;-78
2021/12/30 05:10:47;;;;;;;2.37;1.80;;;12.80;99.90;;;;;;2612411;47;20509;-78
2021/12/30 05:13:14;;;;;;;3.50;3.20;;;12.80;99.90;;;;;;2613604;54;20404;-78
2021/12/30 05:15:41;;;;;;;4.70;2.90;;;12.80;99.90;;;;;;2614615;39;20817;-78
2021/12/30 05:18:09;;;;;;;2.23;1.70;;;12.90;99.90;;;;;;2615010;54;20517;-78
2021/12/30 05:20:35;;;;;;;3.47;2.60;;;12.90;99.90;;;;;;2611971;54;20896;-78
2021/12/30 05:23:01;;;;;;;2.60;2.07;;;12.90;99.90;;;;;;2613903;54;20411;-78
2021/12/30 05:25:27;;;;;;;3.30;2.27;;;12.90;99.90;;;;;;2614437;47;20494;-78
2021/12/30 05:27:53;;;;;;;1.93;1.57;;;12.90;99.90;;;;;;2612862;54;20254;-78
2021/12/30 05:30:21;;;;;;;2.40;2.20;;;13.00;99.90;;;;;;2614268;54;20407;-78
2021/12/30 05:32:48;;;;;;;4.00;1.70;;;13.00;99.90;;;;;;2611860;54;20671;-79
2021/12/30 05:35:14;;;;;;;1.60;1.50;;;13.00;99.90;;;;;;2613686;39;20799;-78
2021/12/30 05:37:40;;;;;;;2.37;1.40;;;13.00;99.90;;;;;;2614504;54;20388;-79
2021/12/30 05:40:09;;;;;;;4.93;1.83;;;13.00;99.90;;;;;;2614206;47;20262;-78
2021/12/30 05:42:34;;;;;;;1.93;1.40;;;13.10;99.90;;;;;;2616000;31;20871;-79
2021/12/30 05:45:00;;;;;;;1.50;1.00;;;13.20;99.90;;;;;;2613842;54;20407;-78
2021/12/30 05:47:26;;;;;;;0.63;0.60;;;13.20;99.90;;;;;;2615449;54;20442;-78
2021/12/30 05:49:53;;;;;;;2.70;1.57;;;13.20;99.90;;;;;;2614134;54;20154;-79
2021/12/30 05:52:19;;;;;;;1.10;1.00;;;13.10;99.90;;;;;;2614399;47;20175;-78
2021/12/30 05:54:44;;;;;;;1.40;1.30;;;13.20;99.90;;;;;;2615529;54;20419;-78
2021/12/30 05:57:10;;;;;;;1.70;1.60;;;13.20;99.90;;;;;;2614912;54;20159;-78
2021/12/30 05:59:36;;;;;;;2.10;1.20;;;13.30;99.90;;;;;;2615802;54;20147;-77
2021/12/30 06:02:04;;;;;;;4.27;1.30;;;13.10;99.90;;;;;;2613834;54;20404;-77
2021/12/30 06:04:30;;;;;;;1.90;1.47;;;13.10;99.90;;;;;;2614991;54;20408;-77
2021/12/30 06:06:56;;;;;;;1.80;1.30;;;13.10;99.90;;;;;;2611780;54;20422;-77
2021/12/30 06:09:24;;;;;;;3.60;2.37;;;13.10;99.90;;;;;;2614331;54;20554;-77
2021/12/30 06:11:52;;;;;;;2.83;1.80;;;13.10;99.90;;;;;;2613959;51;20429;-78
2021/12/30 06:14:18;;;;;;;3.87;2.70;;;13.20;99.90;;;;;;2614899;54;20551;-78
2021/12/30 06:16:44;;;;;;;4.13;3.07;;;13.20;99.90;;;;;;2614604;54;20400;-77
2021/12/30 06:19:10;;;;;;;5.40;2.60;;;13.20;99.90;;;;;;2614593;51;20438;-78
2021/12/30 06:21:42;;;;;;;7.63;4.40;;;13.20;99.90;;;;;;2614210;54;20415;-77
2021/12/30 06:24:08;;;;;;;4.60;4.20;;;13.20;99.90;;;;;;2615287;54;20183;-77
2021/12/30 06:26:33;;;;;;;5.47;3.90;;;13.30;99.90;;;;;;2615091;54;21005;-77
2021/12/30 06:28:59;;;;;;;3.73;3.43;;;13.30;99.90;;;;;;2614451;54;20399;-77
2021/12/30 06:31:25;;;;;;;5.00;3.80;;;13.40;99.90;;;;;;2614237;54;20162;-76
2021/12/30 06:33:51;;;;;;;4.93;2.53;;;13.40;99.90;;;;;;2613298;54;20178;-77
2021/12/30 06:36:17;;;;;;;4.90;3.73;;;13.40;99.90;;;;;;2613007;47;20162;-78
2021/12/30 06:38:43;;;;;;;3.97;3.57;;;13.50;99.90;;;;;;2614383;54;20189;-77
2021/12/30 06:41:09;;;;;;;4.47;3.47;;;13.50;99.90;;;;;;2614263;54;20420;-77
2021/12/30 06:43:35;;;;;;;4.67;3.73;;;13.50;99.90;;;;;;2614613;54;20426;-78
2021/12/30 06:46:05;;;;;;;4.57;3.50;;;13.60;99.90;;;;;;2615971;54;20165;-79
2021/12/30 06:48:30;;;;;;;5.00;4.40;;;13.60;99.90;;;;;;2614191;54;20422;-79
2021/12/30 06:50:59;;;;;;;8.10;6.70;;;13.60;99.90;;;;;;2613794;54;21031;-79
2021/12/30 06:53:25;;;;;;;10.27;7.73;;;13.60;99.90;;;;;;2615288;39;20551;-78
2021/12/30 06:55:52;;;;;;;8.30;6.30;;;13.70;99.90;;;;;;2615028;54;20434;-79
2021/12/30 06:58:19;;;;;;;7.57;6.80;;;13.80;99.90;;;;;;2615845;54;20439;-79
2021/12/30 07:00:47;;;;;;;9.47;7.03;;;13.80;99.90;;;;;;2614916;54;20396;-79
2021/12/30 07:03:13;;;;;;;9.27;7.87;;;13.80;99.90;;;;;;2614756;54;20426;-78
2021/12/30 07:05:38;;;;;;;11.30;8.60;;;13.80;99.90;;;;;;2614435;54;20938;-79
2021/12/30 07:08:05;;;;;;;8.00;7.20;;;13.80;99.90;;;;;;2611935;54;20408;-78
2021/12/30 07:10:30;;;;;;;11.13;9.63;;;13.90;99.90;;;;;;2612121;54;20147;-80
2021/12/30 07:12:56;;;;;;;12.40;9.00;;;13.90;99.90;;;;;;2611755;54;20975;-78
2021/12/30 07:15:22;;;;;;;9.17;8.13;;;14.00;99.90;;;;;;2615248;54;20155;-79
2021/12/30 07:17:48;;;;;;;9.60;8.30;;;14.00;99.90;;;;;;2612862;54;21008;-79
2021/12/30 07:20:14;;;;;;;11.30;8.83;;;14.00;99.90;;;;;;2613409;39;20837;-79
2021/12/30 07:22:41;;;;;;;11.23;9.23;;;14.00;99.90;;;;;;2614927;54;20161;-79
2021/12/30 07:25:09;;;;;;;8.37;7.57;;;14.10;99.90;;;;;;2610958;54;20489;-79
2021/12/30 07:27:35;;;;;;;13.63;9.33;;;14.00;99.90;;;;;;2611404;54;20445;-79
2021/12/30 07:30:01;;;;;;;9.30;8.07;;;14.10;99.90;;;;;;2611792;54;20410;-78
2021/12/30 07:32:28;;;;;;;10.93;9.00;;;14.10;99.90;;;;;;2612864;39;20809;-78
2021/12/30 07:34:54;;;;;;;7.23;6.53;;;14.10;99.90;;;;;;2611810;54;20469;-78
2021/12/30 07:37:20;;;;;;;8.80;7.90;;;14.00;99.90;;;;;;2609694;54;20419;-78
2021/12/30 07:39:48;;;;;;;8.10;7.40;;;14.00;99.90;;;;;;2612660;54;20427;-78
2021/12/30 07:42:14;;;;;;;7.40;6.10;;;14.00;99.90;;;;;;2613971;54;20407;-79
2021/12/30 07:44:41;;;;;;;7.70;4.97;;;14.10;99.90;;;;;;2614595;47;20965;-78
2021/12/30 07:47:09;;;;;;;6.53;5.80;;;14.10;99.90;;;;;;2614257;54;20501;-79
2021/12/30 07:49:36;;;;;;;7.73;6.90;;;14.00;99.90;;;;;;2613281;54;20178;-77
2021/12/30 07:52:04;;;;;;;6.90;5.10;;;14.00;99.90;;;;;;2611425;47;20430;-80
2021/12/30 07:54:30;;;;;;;5.30;4.80;;;14.00;99.90;;;;;;2613680;54;20994;-79
2021/12/30 07:56:56;;;;;;;7.77;7.07;;;14.00;99.90;;;;;;2614111;47;20410;-79
2021/12/30 07:59:22;;;;;;;10.43;6.70;;;14.00;99.90;;;;;;2615498;54;20404;-80
2021/12/30 08:01:48;;;;;;;6.57;5.97;;;14.00;99.90;;;;;;2612563;54;20436;-79
2021/12/30 08:04:14;;;;;;;6.20;5.20;;;14.00;99.90;;;;;;2613287;46;20177;-79
2021/12/30 08:06:41;;;;;;;6.73;5.93;;;14.00;99.90;;;;;;2615170;54;20416;-79
2021/12/30 08:09:07;;;;;;;7.00;6.03;;;14.00;99.90;;;;;;2613228;54;21100;-80
2021/12/30 08:11:33;;;;;;;7.90;7.10;;;13.90;99.90;;;;;;2613530;46;20490;-79
2021/12/30 08:14:00;;;;;;;6.97;6.30;;;14.00;99.90;;;;;;2613753;39;20569;-79
2021/12/30 08:16:28;;;;;;;9.13;6.77;;;14.00;99.90;;;;;;2614370;46;20887;-79
2021/12/30 08:18:54;;;;;;;5.97;4.93;;;14.00;99.90;;;;;;2614575;39;20796;-78
2021/12/30 08:21:27;;;;;;;9.03;6.00;;;13.90;99.90;;;;;;2612923;54;20434;-79
2021/12/30 08:23:54;;;;;;;6.40;5.20;;;14.00;99.90;;;;;;2611896;39;20476;-80
2021/12/30 08:26:21;;;;;;;8.20;7.40;;;14.00;99.90;;;;;;2614959;54;20427;-78
2021/12/30 08:28:47;;;;;;;5.07;4.47;;;14.00;99.90;;;;;;2615631;39;20850;-78
2021/12/30 08:31:14;;;;;;;9.53;6.60;;;14.10;99.90;;;;;;2615696;54;20428;-78
2021/12/30 08:33:40;;;;;;;9.20;6.83;;;14.10;99.90;;;;;;2615665;54;20447;-78
2021/12/30 08:36:06;;;;;;;9.60;8.70;;;14.10;99.90;;;;;;2615364;54;20458;-78
2021/12/30 08:38:32;;;;;;;10.70;7.03;;;14.00;99.90;;;;;;2615080;54;20454;-78
2021/12/30 08:40:58;;;;;;;7.30;6.30;;;14.00;99.90;;;;;;2615201;54;20399;-79
2021/12/30 08:43:25;;;;;;;7.23;6.17;;;14.00;99.90;;;;;;2615328;54;20419;-78
2021/12/30 08:45:51;;;;;;;9.43;8.10;;;14.00;99.90;;;;;;2615365;39;20667;-79
2021/12/30 08:48:19;;;;;;;9.27;8.27;;;14.00;99.90;;;;;;2616057;54;20412;-78
2021/12/30 08:50:46;;;;;;;8.50;6.60;;;14.00;99.90;;;;;;2615126;39;20515;-78
2021/12/30 08:53:14;;;;;;;9.43;7.33;;;14.00;99.90;;;;;;2615807;54;20424;-79
2021/12/30 08:55:42;;;;;;;8.83;7.93;;;14.00;99.90;;;;;;2614441;54;20514;-78
2021/12/30 08:58:12;;;;;;;8.77;7.37;;;14.00;99.90;;;;;;2615839;39;20454;-78
2021/12/30 09:00:41;;;;;;;8.43;6.60;;;14.00;99.90;;;;;;2614647;54;20395;-78
2021/12/30 09:03:07;;;;;;;7.00;4.60;;;14.00;99.90;;;;;;2615738;54;20408;-78
2021/12/30 09:05:34;;;;;;;7.77;6.93;;;14.00;99.90;;;;;;2615412;47;20422;-78
2021/12/30 09:08:01;;;;;;;6.43;5.77;;;14.00;99.90;;;;;;2615467;54;20467;-79
2021/12/30 09:10:27;;;;;;;6.50;5.90;;;14.00;99.90;;;;;;2613639;54;20415;-80
2021/12/30 09:12:53;;;;;;;6.63;5.83;;;14.00;99.90;;;;;;2613915;46;20477;-79
2021/12/30 09:15:22;;;;;;;6.13;4.87;;;14.00;99.90;;;;;;2614977;54;20415;-79
2021/12/30 09:17:49;;;;;;;9.10;7.40;;;14.00;99.90;;;;;;2616148;54;20430;-78
2021/12/30 09:20:18;;;;;;;10.17;8.33;;;14.00;99.90;;;;;;2613536;54;20395;-79
2021/12/30 09:22:44;;;;;;;8.40;7.50;;;14.00;99.90;;;;;;2614420;54;20411;-81
2021/12/30 09:25:11;;;;;;;13.10;8.10;;;14.00;99.90;;;;;;2615311;54;20990;-78
2021/12/30 09:27:39;;;;;;;9.37;8.17;;;14.00;99.90;;;;;;2614840;54;20443;-78
2021/12/30 09:30:09;;;;;;;9.50;7.10;;;14.10;99.90;;;;;;2614845;54;20422;-77
2021/12/30 09:32:36;;;;;;;9.10;6.97;;;14.10;99.90;;;;;;2614206;54;20412;-78
2021/12/30 09:35:03;;;;;;;8.57;6.60;;;14.20;99.90;;;;;;2613112;47;20963;-78
2021/12/30 09:37:29;;;;;;;8.93;7.00;;;14.20;99.90;;;;;;2613368;47;20462;-78
2021/12/30 09:39:58;;;;;;;7.13;5.90;;;14.30;99.90;;;;;;2613879;54;20423;-80
2021/12/30 09:42:24;;;;;;;5.00;3.63;;;14.40;99.90;;;;;;2614065;54;20408;-79
2021/12/30 09:44:50;;;;;;;4.63;4.17;;;14.40;99.90;;;;;;2613119;39;20723;-80
2021/12/30 09:47:17;;;;;;;4.07;3.67;;;14.40;99.90;;;;;;2613031;54;20407;-82
2021/12/30 09:49:44;;;;;;;2.80;2.40;;;14.50;99.90;;;;;;2612855;31;20854;-80
2021/12/30 09:52:12;;;;;;;3.30;3.00;;;14.40;99.90;;;;;;2613226;47;20431;-81
2021/12/30 09:54:38;;;;;;;4.37;3.43;;;14.50;99.90;;;;;;2612574;47;20977;-80
2021/12/30 09:57:04;;;;;;;2.93;2.50;;;14.60;99.90;;;;;;2615123;39;20829;-82
2021/12/30 09:59:31;;;;;;;1.90;1.70;;;14.70;99.90;;;;;;2614120;54;20424;-82
2021/12/30 10:01:58;;;;;;;3.97;2.70;;;14.70;99.90;;;;;;2614707;54;20423;-82
2021/12/30 10:04:33;;;;;;;2.17;1.87;;;14.70;99.90;;;;;;2614176;54;20427;-81
2021/12/30 10:07:00;;;;;;;2.70;2.50;;;14.80;99.90;;;;;;2614214;47;20430;-81
2021/12/30 10:09:52;;;;;;;3.13;2.10;;;14.80;99.90;;;;;;2614610;39;20879;-81
2021/12/30 10:12:39;;;;;;;2.27;1.70;;;14.80;99.90;;;;;;2613098;54;20409;-81
2021/12/30 10:15:07;;;;;;;3.83;2.17;;;14.90;99.90;;;;;;2615357;39;20808;-80
2021/12/30 10:17:35;;;;;;;2.90;1.90;;;14.90;99.90;;;;;;2615307;54;20424;-81
2021/12/30 10:20:42;;;;;;;2.50;1.87;;;14.90;99.90;;;;;;2614775;47;20434;-80
2021/12/30 10:23:12;;;;;;;2.07;1.93;;;14.90;99.90;;;;;;2612452;54;20426;-81
2021/12/30 10:25:42;;;;;;;2.10;1.90;;;14.80;99.90;;;;;;2615042;39;20840;-80
2021/12/30 10:28:32;;;;;;;1.83;1.73;;;14.80;99.90;;;;;;2612825;54;20445;-80
2021/12/30 10:31:01;;;;;;;2.27;2.07;;;14.80;99.90;;;;;;2610821;39;20926;-80
2021/12/30 10:33:29;;;;;;;1.70;1.60;;;14.80;99.90;;;;;;2612672;39;20798;-78
2021/12/30 10:35:56;;;;;;;2.57;2.37;;;14.90;99.90;;;;;;2612530;54;20406;-80
2021/12/30 10:38:26;;;;;;;2.90;2.40;;;14.90;99.90;;;;;;2612743;54;20411;-79
2021/12/30 10:40:53;;;;;;;4.70;2.90;;;15.00;99.90;;;;;;2611785;54;20423;-79
2021/12/30 10:43:33;;;;;;;3.50;3.20;;;15.10;99.90;;;;;;2611436;39;20815;-79
2021/12/30 10:46:21;;;;;;;2.53;2.33;;;15.10;99.90;;;;;;2614677;47;20426;-80
2021/12/30 10:48:57;;;;;;;2.40;2.17;;;15.20;99.90;;;;;;2615520;46;20450;-81
2021/12/30 10:51:34;;;;;;;3.50;2.53;;;15.20;99.90;;;;;;2615734;47;20450;-79
2021/12/30 10:54:26;;;;;;;5.33;3.13;;;15.20;99.90;;;;;;2614094;39;20827;-79
2021/12/30 10:56:57;;;;;;;2.93;2.73;;;15.30;99.90;;;;;;2612333;47;20419;-80
2021/12/30 10:59:29;;;;;;;2.10;1.97;;;15.40;99.90;;;;;;2613833;47;20421;-79
2021/12/30 11:02:03;;;;;;;2.47;2.17;;;15.40;99.90;;;;;;2614693;47;20450;-80
2021/12/30 11:04:41;;;;;;;2.73;2.10;;;15.40;99.90;;;;;;2610836;54;20450;-80
2021/12/30 11:07:10;;;;;;;2.10;2.00;;;15.40;99.90;;;;;;2612673;54;20404;-80
2021/12/30 11:09:44;;;;;;;3.10;2.33;;;15.30;99.90;;;;;;2610719;47;20410;-80
2021/12/30 11:12:10;;;;;;;3.07;2.77;;;15.30;99.90;;;;;;2610961;39;20872;-81
2021/12/30 11:14:39;;;;;;;5.63;2.40;;;15.40;99.90;;;;;;2614551;39;20826;-80
2021/12/30 11:17:16;;;;;;;3.80;3.00;;;15.40;99.90;;;;;;2610798;54;20411;-80
2021/12/30 11:19:43;;;;;;;2.70;2.43;;;15.30;99.90;;;;;;2614177;54;20415;-81
2021/12/30 11:22:13;;;;;;;2.93;2.67;;;15.30;99.90;;;;;;2610724;54;20454;-80
2021/12/30 11:24:40;;;;;;;1.80;1.70;;;15.40;99.90;;;;;;2612224;47;21405;-81
2021/12/30 11:27:08;;;;;;;2.60;2.20;;;15.70;99.90;;;;;;2614472;47;20439;-81
2021/12/30 11:29:36;;;;;;;2.77;2.27;;;16.10;99.90;;;;;;2615108;54;20981;-80
2021/12/30 11:32:05;;;;;;;3.30;3.00;;;15.80;99.90;;;;;;2616267;54;20442;-80
2021/12/30 11:34:31;;;;;;;1.90;1.70;;;15.50;99.90;;;;;;2616403;39;20799;-81
2021/12/30 11:37:00;;;;;;;3.07;2.10;;;15.30;99.90;;;;;;2615763;54;20503;-81
2021/12/30 11:39:26;;;;;;;2.50;2.30;;;15.30;99.90;;;;;;2615640;54;20427;-81
2021/12/30 11:42:10;;;;;;;2.90;2.63;;;15.30;99.90;;;;;;2612248;54;20403;-80
2021/12/30 11:45:01;;;;;;;7.10;2.70;;;15.50;99.90;;;;;;2615745;54;20388;-81
2021/12/30 11:47:36;;;;;;;2.50;2.30;;;15.70;99.90;;;;;;2614784;54;20560;-80
2021/12/30 11:50:26;;;;;;;2.80;2.60;;;15.70;99.90;;;;;;2614928;54;20406;-81
2021/12/30 11:52:52;;;;;;;2.23;2.03;;;15.70;99.90;;;;;;2614203;54;20404;-80
2021/12/30 11:55:51;;;;;;;3.43;2.60;;;15.40;99.90;;;;;;2615084;54;20418;-82
2021/12/30 12:01:13;;;;;;;4.33;2.70;;;15.30;99.90;;;;;;2614020;47;20430;-80
2021/12/30 12:03:53;;;;;;;5.30;3.33;;;15.20;99.90;;;;;;2614254;47;20411;-81
2021/12/30 12:06:38;;;;;;;9.80;3.40;;;15.20;99.90;;;;;;2614649;47;21023;-81
2021/12/30 12:09:32;;;;;;;7.30;2.80;;;15.20;99.90;;;;;;2614602;54;20459;-81
2021/12/30 12:12:01;;;;;;;3.80;2.53;;;15.20;99.90;;;;;;2613893;46;20477;-81
2021/12/30 12:14:30;;;;;;;4.30;3.87;;;15.20;99.90;;;;;;2613487;47;20504;-80
2021/12/30 12:17:19;;;;;;;6.60;3.10;;;15.20;99.90;;;;;;2614494;54;20553;-79
2021/12/30 12:19:52;;;;;;;5.47;3.17;;;15.20;99.90;;;;;;2614809;47;21001;-80
2021/12/30 12:22:17;;;;;;;4.70;2.73;;;15.10;99.90;;;;;;2614201;54;20455;-80
2021/12/30 12:25:03;;;;;;;3.80;2.77;;;15.10;99.90;;;;;;2614526;47;20455;-81
2021/12/30 12:27:35;;;;;;;5.60;3.60;;;15.10;99.90;;;;;;2616273;54;20403;-81
2021/12/30 12:30:02;;;;;;;5.90;3.40;;;15.10;99.90;;;;;;2616227;54;20415;-80
2021/12/30 12:32:34;;;;;;;11.07;3.30;;;15.10;99.90;;;;;;2615230;54;20434;-80
2021/12/30 12:35:21;;;;;;;4.70;3.20;;;15.10;99.90;;;;;;2615669;54;20395;-80
2021/12/30 12:38:03;;;;;;;5.20;2.80;;;15.10;99.90;;;;;;2615333;54;20446;-80
2021/12/30 12:40:33;;;;;;;6.80;3.10;;;15.10;99.90;;;;;;2615762;54;20431;-80
2021/12/30 12:43:15;;;;;;;8.90;3.33;;;15.20;99.90;;;;;;2614815;39;20918;-83
2021/12/30 12:45:49;;;;;;;9.40;3.47;;;15.20;99.90;;;;;;2615226;54;20483;-80
2021/12/30 12:50:55;;;;;;;4.27;2.90;;;15.20;99.90;;;;;;2613993;54;20403;-80
2021/12/30 12:53:24;;;;;;;5.23;3.70;;;15.30;99.90;;;;;;2615647;51;20458;-80